createdAt,value
2023-01-12T00:00:49.418Z,2.30
2023-01-12T00:01:49.418Z,2.10
2023-01-12T00:02:49.392Z,2.10
2023-01-12T00:03:49.378Z,2.10
2023-01-12T00:04:49.379Z,2.10
2023-01-12T00:05:49.352Z,2.30
2023-01-12T00:06:49.359Z,2.10
2023-01-12T00:07:49.327Z,2.20
2023-01-12T00:08:49.315Z,2.70
2023-01-12T00:09:49.347Z,1.80
2023-01-12T00:10:49.283Z,1.80
2023-01-12T00:11:49.285Z,2.00
2023-01-12T00:12:49.263Z,1.80
2023-01-12T00:13:49.257Z,1.60
2023-01-12T00:14:49.235Z,1.80
2023-01-12T00:15:49.236Z,2.20
2023-01-12T00:16:49.225Z,2.20
2023-01-12T00:17:49.193Z,2.50
2023-01-12T00:18:49.184Z,2.20
2023-01-12T00:19:49.165Z,2.20
2023-01-12T00:20:49.158Z,2.10
2023-01-12T00:21:49.160Z,2.00
2023-01-12T00:22:49.131Z,2.00
2023-01-12T00:23:49.112Z,2.20
2023-01-12T00:24:49.099Z,2.50
2023-01-12T00:25:49.114Z,1.70
2023-01-12T00:26:49.101Z,2.00
2023-01-12T00:27:49.063Z,2.30
2023-01-12T00:28:49.064Z,2.30
2023-01-12T00:29:49.056Z,2.00
2023-01-12T00:30:49.028Z,2.20
2023-01-12T00:31:49.032Z,1.80
2023-01-12T00:32:49.003Z,2.30
2023-01-12T00:33:48.984Z,2.40
2023-01-12T00:34:48.990Z,2.40
2023-01-12T00:35:48.971Z,2.50
2023-01-12T00:36:48.949Z,1.90
2023-01-12T00:37:48.959Z,1.80
2023-01-12T00:38:48.922Z,1.90
2023-01-12T00:40:01.461Z,1.90
2023-01-12T00:40:49.899Z,2.30
2023-01-12T00:41:48.913Z,2.30
2023-01-12T00:42:48.886Z,2.30
2023-01-12T00:43:48.861Z,2.30
2023-01-12T00:44:48.859Z,2.30
2023-01-12T00:45:48.838Z,2.20
2023-01-12T00:46:48.817Z,2.40
2023-01-12T00:47:48.816Z,2.00
2023-01-12T00:48:48.809Z,2.60
2023-01-12T00:49:48.774Z,2.30
2023-01-12T00:50:48.765Z,2.30
2023-01-12T00:51:48.747Z,2.40
2023-01-12T00:52:48.771Z,2.10
2023-01-12T00:53:48.728Z,2.30
2023-01-12T00:54:48.733Z,2.10
2023-01-12T00:55:48.699Z,1.70
2023-01-12T00:56:48.686Z,2.30
2023-01-12T00:57:48.709Z,2.40
2023-01-12T00:58:48.661Z,2.40
2023-01-12T00:59:48.648Z,2.50
2023-01-12T01:00:48.638Z,2.10
2023-01-12T01:01:48.704Z,2.00
2023-01-12T01:02:48.710Z,2.00
2023-01-12T01:03:48.597Z,2.60
2023-01-12T01:04:48.588Z,2.20
2023-01-12T01:05:48.579Z,1.40
2023-01-12T01:06:48.557Z,2.10
2023-01-12T01:07:48.563Z,2.50
2023-01-12T01:08:48.539Z,1.60
2023-01-12T01:09:48.522Z,1.90
2023-01-12T01:10:48.505Z,2.00
2023-01-12T01:11:48.489Z,2.10
2023-01-12T01:12:48.497Z,2.40
2023-01-12T01:13:48.484Z,2.20
2023-01-12T01:14:48.467Z,2.40
2023-01-12T01:15:48.454Z,2.20
2023-01-12T01:16:48.430Z,2.10
2023-01-12T01:17:48.434Z,1.90
2023-01-12T01:18:48.400Z,2.40
2023-01-12T01:19:48.396Z,2.40
2023-01-12T01:20:48.375Z,2.10
2023-01-12T01:21:48.362Z,2.30
2023-01-12T01:22:48.362Z,2.20
2023-01-12T01:23:48.344Z,1.90
2023-01-12T01:24:48.324Z,1.60
2023-01-12T01:25:48.329Z,2.40
2023-01-12T01:26:48.296Z,1.60
2023-01-12T01:27:48.295Z,2.20
2023-01-12T01:28:48.272Z,1.90
2023-01-12T01:29:48.278Z,2.50
2023-01-12T01:30:48.349Z,1.90
2023-01-12T01:31:48.231Z,2.10
2023-01-12T01:32:48.229Z,2.80
2023-01-12T01:33:48.207Z,2.30
2023-01-12T01:34:48.219Z,2.40
2023-01-12T01:35:48.178Z,2.40
2023-01-12T01:36:48.164Z,2.20
2023-01-12T01:37:48.167Z,2.00
2023-01-12T01:38:48.143Z,2.00
2023-01-12T01:39:48.125Z,2.10
2023-01-12T01:40:48.112Z,2.10
2023-01-12T01:41:48.166Z,2.40
2023-01-12T01:42:48.101Z,1.90
2023-01-12T01:43:48.081Z,1.60
2023-01-12T01:44:48.066Z,1.40
2023-01-12T01:45:48.074Z,2.00
2023-01-12T01:46:48.060Z,1.90
2023-01-12T01:47:48.040Z,1.90
2023-01-12T01:48:48.025Z,2.40
2023-01-12T01:49:47.996Z,1.50
2023-01-12T01:50:47.984Z,2.30
2023-01-12T01:51:47.973Z,2.20
2023-01-12T01:52:47.972Z,2.50
2023-01-12T01:53:47.962Z,2.00
2023-01-12T01:54:47.931Z,2.10
2023-01-12T01:55:47.921Z,1.70
2023-01-12T01:56:47.925Z,1.70
2023-01-12T01:57:47.905Z,1.60
2023-01-12T01:58:47.895Z,2.20
2023-01-12T01:59:47.868Z,2.30
2023-01-12T02:00:47.858Z,2.10
2023-01-12T02:01:47.911Z,1.70
2023-01-12T02:02:47.936Z,2.00
2023-01-12T02:03:47.837Z,2.20
2023-01-12T02:04:47.807Z,2.20
2023-01-12T02:05:47.792Z,2.20
2023-01-12T02:06:47.777Z,2.50
2023-01-12T02:07:47.770Z,2.10
2023-01-12T02:08:47.765Z,2.20
2023-01-12T02:09:47.741Z,1.90
2023-01-12T02:10:47.723Z,1.50
2023-01-12T02:11:47.720Z,2.30
2023-01-12T02:12:47.702Z,2.10
2023-01-12T02:13:47.701Z,1.40
2023-01-12T02:14:47.681Z,1.70
2023-01-12T02:15:47.759Z,1.90
2023-01-12T02:16:47.646Z,2.10
2023-01-12T02:17:47.667Z,2.20
2023-01-12T02:18:47.644Z,2.40
2023-01-12T02:19:47.612Z,2.60
2023-01-12T02:20:47.597Z,2.20
2023-01-12T02:21:47.580Z,2.10
2023-01-12T02:22:47.567Z,2.20
2023-01-12T02:23:47.577Z,2.10
2023-01-12T02:24:47.547Z,2.30
2023-01-12T02:25:47.537Z,1.90
2023-01-12T02:26:47.527Z,2.00
2023-01-12T02:27:47.512Z,2.30
2023-01-12T02:28:47.515Z,1.80
2023-01-12T02:29:47.485Z,1.70
2023-01-12T02:30:47.499Z,2.10
2023-01-12T02:31:47.456Z,2.20
2023-01-12T02:32:47.441Z,2.10
2023-01-12T02:33:47.463Z,2.00
2023-01-12T02:34:47.426Z,2.40
2023-01-12T02:35:47.404Z,2.00
2023-01-12T02:36:47.391Z,2.20
2023-01-12T02:37:47.380Z,2.20
2023-01-12T02:38:47.378Z,2.40
2023-01-12T02:39:47.351Z,2.40
2023-01-12T02:40:47.338Z,2.50
2023-01-12T02:41:47.328Z,1.90
2023-01-12T02:42:47.369Z,2.00
2023-01-12T02:43:47.318Z,2.20
2023-01-12T02:44:47.288Z,2.20
2023-01-12T02:45:47.272Z,2.50
2023-01-12T02:46:47.313Z,1.80
2023-01-12T02:47:47.246Z,2.10
2023-01-12T02:48:47.270Z,2.60
2023-01-12T02:49:47.242Z,2.10
2023-01-12T02:50:47.218Z,2.10
2023-01-12T02:51:47.223Z,1.60
2023-01-12T02:52:47.186Z,2.20
2023-01-12T02:53:47.209Z,1.90
2023-01-12T02:54:47.167Z,1.70
2023-01-12T02:55:47.161Z,1.80
2023-01-12T02:56:47.133Z,1.90
2023-01-12T02:57:47.121Z,1.70
2023-01-12T02:58:47.123Z,2.60
2023-01-12T02:59:47.094Z,2.20
2023-01-12T03:00:47.102Z,2.20
2023-01-12T03:01:47.116Z,2.30
2023-01-12T03:02:47.086Z,1.90
2023-01-12T03:03:47.113Z,1.30
2023-01-12T03:04:47.032Z,2.00
2023-01-12T03:05:47.045Z,2.50
2023-01-12T03:06:47.008Z,2.20
2023-01-12T03:07:46.990Z,2.10
2023-01-12T03:08:46.975Z,2.00
2023-01-12T03:09:46.983Z,2.20
2023-01-12T03:10:46.947Z,2.50
2023-01-12T03:11:46.934Z,2.10
2023-01-12T03:12:46.931Z,2.30
2023-01-12T03:13:46.911Z,2.30
2023-01-12T03:14:46.910Z,2.40
2023-01-12T03:15:46.921Z,2.50
2023-01-12T03:16:46.878Z,2.20
2023-01-12T03:17:46.858Z,2.00
2023-01-12T03:18:46.845Z,2.10
2023-01-12T03:19:46.849Z,2.20
2023-01-12T03:20:46.822Z,2.10
2023-01-12T03:21:46.958Z,2.20
2023-01-12T03:22:46.794Z,2.90
2023-01-12T03:23:46.784Z,2.40
2023-01-12T03:24:46.782Z,2.20
2023-01-12T03:25:46.756Z,2.60
2023-01-12T03:26:46.757Z,2.40
2023-01-12T03:27:46.731Z,2.50
2023-01-12T03:28:46.718Z,2.30
2023-01-12T03:29:46.722Z,2.20
2023-01-12T03:30:46.707Z,2.30
2023-01-12T03:31:46.771Z,2.20
2023-01-12T03:32:46.675Z,1.90
2023-01-12T03:33:46.653Z,2.00
2023-01-12T03:34:46.652Z,2.40
2023-01-12T03:35:46.621Z,1.70
2023-01-12T03:36:46.641Z,2.00
2023-01-12T03:37:46.625Z,2.10
2023-01-12T03:38:46.591Z,2.20
2023-01-12T03:39:46.602Z,2.00
2023-01-12T03:40:46.571Z,2.20
2023-01-12T03:41:46.553Z,2.50
2023-01-12T03:42:46.535Z,2.20
2023-01-12T03:43:46.527Z,1.90
2023-01-12T03:44:46.525Z,2.20
2023-01-12T03:45:46.506Z,2.30
2023-01-12T03:46:46.525Z,1.80
2023-01-12T03:47:46.500Z,1.90
2023-01-12T03:48:46.457Z,2.30
2023-01-12T03:49:46.465Z,2.00
2023-01-12T03:50:46.432Z,2.30
2023-01-12T03:51:46.426Z,2.10
2023-01-12T03:52:46.402Z,2.00
2023-01-12T03:53:46.503Z,1.90
2023-01-12T03:54:46.403Z,2.00
2023-01-12T03:55:46.369Z,1.90
2023-01-12T03:56:46.355Z,1.60
2023-01-12T03:57:46.376Z,2.40
2023-01-12T03:58:46.342Z,2.70
2023-01-12T03:59:46.341Z,2.20
2023-01-12T04:00:46.406Z,2.20
2023-01-12T04:01:46.444Z,2.60
2023-01-12T04:02:46.282Z,2.40
2023-01-12T04:03:46.280Z,2.20
2023-01-12T04:04:46.269Z,2.20
2023-01-12T04:05:46.244Z,2.20
2023-01-12T04:06:46.231Z,1.90
2023-01-12T04:07:46.215Z,2.00
2023-01-12T04:08:46.208Z,2.20
2023-01-12T04:09:46.224Z,2.50
2023-01-12T04:10:46.178Z,2.30
2023-01-12T04:11:46.165Z,2.20
2023-01-12T04:12:46.159Z,2.10
2023-01-12T04:13:46.139Z,2.30
2023-01-12T04:14:48.107Z,2.40
2023-01-12T04:15:46.118Z,1.40
2023-01-12T04:16:46.107Z,1.90
2023-01-12T04:17:46.090Z,1.40
2023-01-12T04:18:46.078Z,1.80
2023-01-12T04:19:46.085Z,2.20
2023-01-12T04:20:46.047Z,2.40
2023-01-12T04:21:46.044Z,1.80
2023-01-12T04:22:46.048Z,1.70
2023-01-12T04:23:46.015Z,1.80
2023-01-12T04:24:46.027Z,2.00
2023-01-12T04:25:46.013Z,2.20
2023-01-12T04:26:45.982Z,1.70
2023-01-12T04:27:45.963Z,2.40
2023-01-12T04:28:45.948Z,2.00
2023-01-12T04:29:45.951Z,2.60
2023-01-12T04:30:45.923Z,2.30
2023-01-12T04:31:45.927Z,1.90
2023-01-12T04:32:45.911Z,2.50
2023-01-12T04:33:45.883Z,2.20
2023-01-12T04:34:45.896Z,1.90
2023-01-12T04:35:45.860Z,1.70
2023-01-12T04:36:45.849Z,2.50
2023-01-12T04:37:45.848Z,2.00
2023-01-12T04:38:45.823Z,2.20
2023-01-12T04:39:45.835Z,2.00
2023-01-12T04:40:45.803Z,1.80
2023-01-12T04:41:45.799Z,1.90
2023-01-12T04:42:45.773Z,2.40
2023-01-12T04:43:45.759Z,2.10
2023-01-12T04:44:45.749Z,2.10
2023-01-12T04:45:45.794Z,2.30
2023-01-12T04:46:45.719Z,2.10
2023-01-12T04:47:45.708Z,2.60
2023-01-12T04:48:45.695Z,2.60
2023-01-12T04:49:45.682Z,2.20
2023-01-12T04:50:45.705Z,2.20
2023-01-12T04:51:45.660Z,2.10
2023-01-12T04:52:45.645Z,2.80
2023-01-12T04:53:45.634Z,2.30
2023-01-12T04:54:45.636Z,2.00
2023-01-12T04:55:45.630Z,2.40
2023-01-12T04:56:45.601Z,2.40
2023-01-12T04:57:45.605Z,2.00
2023-01-12T04:58:45.566Z,1.80
2023-01-12T04:59:45.560Z,1.90
2023-01-12T05:00:45.620Z,2.10
2023-01-12T05:01:45.569Z,1.90
2023-01-12T05:02:45.512Z,2.70
2023-01-12T05:03:45.657Z,2.00
2023-01-12T05:04:45.487Z,2.30
2023-01-12T05:05:45.492Z,2.50
2023-01-12T05:06:45.468Z,2.20
2023-01-12T05:07:45.451Z,2.00
2023-01-12T05:08:45.451Z,2.70
2023-01-12T05:09:45.430Z,2.30
2023-01-12T05:10:45.435Z,1.90
2023-01-12T05:11:45.406Z,1.70
2023-01-12T05:12:45.392Z,1.80
2023-01-12T05:13:45.459Z,2.10
2023-01-12T05:14:45.361Z,2.00
2023-01-12T05:15:45.366Z,2.50
2023-01-12T05:16:45.400Z,1.90
2023-01-12T05:17:45.329Z,1.80
2023-01-12T05:18:45.327Z,1.50
2023-01-12T05:19:45.302Z,2.60
2023-01-12T05:20:45.306Z,1.80
2023-01-12T05:21:45.275Z,2.00
2023-01-12T05:22:45.275Z,1.80
2023-01-12T05:23:45.258Z,2.00
2023-01-12T05:24:45.239Z,1.90
2023-01-12T05:25:45.242Z,1.80
2023-01-12T05:26:45.225Z,1.80
2023-01-12T05:27:45.200Z,2.20
2023-01-12T05:28:45.201Z,2.10
2023-01-12T05:29:45.196Z,2.10
2023-01-12T05:30:45.344Z,2.10
2023-01-12T05:31:45.162Z,1.80
2023-01-12T05:32:45.137Z,2.30
2023-01-12T05:33:45.123Z,2.40
2023-01-12T05:34:45.149Z,1.80
2023-01-12T05:35:45.108Z,1.90
2023-01-12T05:36:45.084Z,2.90
2023-01-12T05:37:45.072Z,2.10
2023-01-12T05:38:45.060Z,1.90
2023-01-12T05:39:45.064Z,2.00
2023-01-12T05:40:45.049Z,2.10
2023-01-12T05:41:45.024Z,2.20
2023-01-12T05:42:45.011Z,2.70
2023-01-12T05:43:44.991Z,1.90
2023-01-12T05:44:44.978Z,1.80
2023-01-12T05:45:45.162Z,2.50
2023-01-12T05:46:44.961Z,1.90
2023-01-12T05:47:44.944Z,2.20
2023-01-12T05:48:44.949Z,1.90
2023-01-12T05:49:44.922Z,2.20
2023-01-12T05:50:44.927Z,1.90
2023-01-12T05:51:44.895Z,1.80
2023-01-12T05:52:44.886Z,2.20
2023-01-12T05:53:44.866Z,2.20
2023-01-12T05:54:44.855Z,2.40
2023-01-12T05:55:44.859Z,2.00
2023-01-12T05:56:44.829Z,2.20
2023-01-12T05:57:44.815Z,1.90
2023-01-12T05:58:44.804Z,2.20
2023-01-12T05:59:44.800Z,1.90
2023-01-12T06:00:44.779Z,2.20
2023-01-12T06:01:44.808Z,1.80
2023-01-12T06:02:44.752Z,2.10
2023-01-12T06:03:44.744Z,2.10
2023-01-12T06:04:44.785Z,2.30
2023-01-12T06:05:44.714Z,2.30
2023-01-12T06:06:44.715Z,1.50
2023-01-12T06:07:44.709Z,2.40
2023-01-12T06:08:44.678Z,2.60
2023-01-12T06:09:44.674Z,1.80
2023-01-12T06:10:44.646Z,2.40
2023-01-12T06:11:44.648Z,1.80
2023-01-12T06:12:44.628Z,1.80
2023-01-12T06:13:44.614Z,1.60
2023-01-12T06:14:44.605Z,1.60
2023-01-12T06:15:44.664Z,1.90
2023-01-12T06:16:44.602Z,2.30
2023-01-12T06:17:44.588Z,1.90
2023-01-12T06:18:44.547Z,2.10
2023-01-12T06:19:44.535Z,1.40
2023-01-12T06:20:44.522Z,3.80
2023-01-12T06:21:44.540Z,2.20
2023-01-12T06:22:44.504Z,1.90
2023-01-12T06:23:44.485Z,2.00
2023-01-12T06:24:44.470Z,1.80
2023-01-12T06:25:44.463Z,1.80
2023-01-12T06:26:44.467Z,2.30
2023-01-12T06:27:44.431Z,2.20
2023-01-12T06:28:44.419Z,1.90
2023-01-12T06:29:44.408Z,2.00
2023-01-12T06:30:44.439Z,1.60
2023-01-12T06:31:44.395Z,1.90
2023-01-12T06:32:44.373Z,2.30
2023-01-12T06:33:44.376Z,2.30
2023-01-12T06:34:44.344Z,1.80
2023-01-12T06:35:44.327Z,1.70
2023-01-12T06:36:44.333Z,1.40
2023-01-12T06:37:44.301Z,2.50
2023-01-12T06:38:44.303Z,2.20
2023-01-12T06:39:44.278Z,2.00
2023-01-12T06:40:44.271Z,2.00
2023-01-12T06:41:44.498Z,2.30
2023-01-12T06:42:44.241Z,2.00
2023-01-12T06:43:44.228Z,1.60
2023-01-12T06:44:44.226Z,1.60
2023-01-12T06:45:44.209Z,1.50
2023-01-12T06:46:44.216Z,2.30
2023-01-12T06:47:44.175Z,1.90
2023-01-12T06:48:44.167Z,2.30
2023-01-12T06:49:44.175Z,2.10
2023-01-12T06:50:44.140Z,2.40
2023-01-12T06:51:44.141Z,2.00
2023-01-12T06:52:44.122Z,2.80
2023-01-12T06:53:44.099Z,2.10
2023-01-12T06:54:44.087Z,2.30
2023-01-12T06:55:44.075Z,1.70
2023-01-12T06:56:44.077Z,2.40
2023-01-12T06:57:44.057Z,1.90
2023-01-12T06:58:44.040Z,2.00
2023-01-12T06:59:44.029Z,2.60
2023-01-12T07:00:44.013Z,2.70
2023-01-12T07:01:44.141Z,2.30
2023-01-12T07:02:44.001Z,2.30
2023-01-12T07:03:43.970Z,2.40
2023-01-12T07:04:44.025Z,2.40
2023-01-12T07:05:43.965Z,2.60
2023-01-12T07:06:43.939Z,2.40
2023-01-12T07:07:43.942Z,2.40
2023-01-12T07:08:43.908Z,2.40
2023-01-12T07:09:43.897Z,2.60
2023-01-12T07:10:43.887Z,2.60
2023-01-12T07:11:43.879Z,2.90
2023-01-12T07:12:43.869Z,2.70
2023-01-12T07:13:43.841Z,2.10
2023-01-12T07:14:43.827Z,2.30
2023-01-12T07:15:43.856Z,2.70
2023-01-12T07:16:43.800Z,2.20
2023-01-12T07:17:43.806Z,2.00
2023-01-12T07:18:43.778Z,2.80
2023-01-12T07:19:43.768Z,2.10
2023-01-12T07:20:43.747Z,2.90
2023-01-12T07:21:43.885Z,2.40
2023-01-12T07:22:43.745Z,2.90
2023-01-12T07:23:43.763Z,2.20
2023-01-12T07:24:43.699Z,2.20
2023-01-12T07:25:43.687Z,2.60
2023-01-12T07:26:43.682Z,2.40
2023-01-12T07:27:43.675Z,2.70
2023-01-12T07:28:43.656Z,2.20
2023-01-12T07:29:43.628Z,2.50
2023-01-12T07:30:43.805Z,2.20
2023-01-12T07:31:43.610Z,2.90
2023-01-12T07:32:43.607Z,1.90
2023-01-12T07:33:43.584Z,2.60
2023-01-12T07:34:43.568Z,2.20
2023-01-12T07:35:43.554Z,2.60
2023-01-12T07:36:43.539Z,2.80
2023-01-12T07:37:43.697Z,2.20
2023-01-12T07:38:43.521Z,2.30
2023-01-12T07:39:43.500Z,2.20
2023-01-12T07:40:43.491Z,2.90
2023-01-12T07:41:43.480Z,2.60
2023-01-12T07:42:43.481Z,3.00
2023-01-12T07:43:43.456Z,2.40
2023-01-12T07:44:43.448Z,2.70
2023-01-12T07:45:43.425Z,2.90
2023-01-12T07:46:43.437Z,2.80
2023-01-12T07:47:43.412Z,2.60
2023-01-12T07:48:43.385Z,2.80
2023-01-12T07:49:43.372Z,2.60
2023-01-12T07:50:43.372Z,2.10
2023-01-12T07:51:43.355Z,2.90
2023-01-12T07:52:43.353Z,2.50
2023-01-12T07:53:43.337Z,2.90
2023-01-12T07:54:43.311Z,2.70
2023-01-12T07:55:43.291Z,2.60
2023-01-12T07:56:44.334Z,2.70
2023-01-12T07:57:43.278Z,2.40
2023-01-12T07:58:43.256Z,2.60
2023-01-12T07:59:43.242Z,2.70
2023-01-12T08:00:43.232Z,2.50
2023-01-12T08:01:43.270Z,2.60
2023-01-12T08:02:43.216Z,2.30
2023-01-12T08:03:43.189Z,2.30
2023-01-12T08:04:43.180Z,2.70
2023-01-12T08:05:43.219Z,2.10
2023-01-12T08:06:43.149Z,2.70
2023-01-12T08:07:43.156Z,2.30
2023-01-12T08:08:43.133Z,2.40
2023-01-12T08:09:43.133Z,2.80
2023-01-12T08:10:43.099Z,2.60
2023-01-12T08:11:43.090Z,2.60
2023-01-12T08:12:43.076Z,2.60
2023-01-12T08:13:43.087Z,2.70
2023-01-12T08:14:43.050Z,2.50
2023-01-12T08:15:43.032Z,2.40
2023-01-12T08:16:43.033Z,2.60
2023-01-12T08:17:43.019Z,2.50
2023-01-12T08:18:43.012Z,2.60
2023-01-12T08:19:42.976Z,2.80
2023-01-12T08:20:42.969Z,2.80
2023-01-12T08:21:42.957Z,2.50
2023-01-12T08:22:42.939Z,3.10
2023-01-12T08:23:42.950Z,2.40
2023-01-12T08:24:42.920Z,2.10
2023-01-12T08:25:42.920Z,2.60
2023-01-12T08:26:42.896Z,3.00
2023-01-12T08:27:42.887Z,3.00
2023-01-12T08:28:42.881Z,2.30
2023-01-12T08:29:42.853Z,2.10
2023-01-12T08:30:42.839Z,2.90
2023-01-12T08:31:42.826Z,2.40
2023-01-12T08:32:42.813Z,2.20
2023-01-12T08:33:42.821Z,2.70
2023-01-12T08:34:42.788Z,1.60
2023-01-12T08:35:42.769Z,2.60
2023-01-12T08:36:44.272Z,2.50
2023-01-12T08:37:42.750Z,2.30
2023-01-12T08:38:42.775Z,2.30
2023-01-12T08:39:42.722Z,2.70
2023-01-12T08:40:42.709Z,2.60
2023-01-12T08:41:42.715Z,2.80
2023-01-12T08:42:42.690Z,2.70
2023-01-12T08:43:42.684Z,2.40
2023-01-12T08:44:42.658Z,2.80
2023-01-12T08:45:42.655Z,2.90
2023-01-12T08:46:42.766Z,2.60
2023-01-12T08:47:42.623Z,2.30
2023-01-12T08:48:42.614Z,2.20
2023-01-12T08:49:42.588Z,2.80
2023-01-12T08:50:42.584Z,2.70
2023-01-12T08:51:42.560Z,2.70
2023-01-12T08:52:42.570Z,2.70
2023-01-12T08:53:42.557Z,2.60
2023-01-12T08:54:42.535Z,2.40
2023-01-12T08:55:42.514Z,2.50
2023-01-12T08:56:42.505Z,2.50
2023-01-12T08:57:42.513Z,2.90
2023-01-12T08:58:42.492Z,2.60
2023-01-12T08:59:42.464Z,2.60
2023-01-12T09:00:42.524Z,2.40
2023-01-12T09:01:42.522Z,2.30
2023-01-12T09:02:42.526Z,2.50
2023-01-12T09:03:42.435Z,2.90
2023-01-12T09:04:42.411Z,2.40
2023-01-12T09:05:42.388Z,2.30
2023-01-12T09:06:42.381Z,2.60
2023-01-12T09:07:42.362Z,3.00
2023-01-12T09:08:42.370Z,2.80
2023-01-12T09:09:42.345Z,2.50
2023-01-12T09:10:42.343Z,2.30
2023-01-12T09:11:42.352Z,2.50
2023-01-12T09:12:42.295Z,2.40
2023-01-12T09:13:42.313Z,3.40
2023-01-12T09:14:42.277Z,2.40
2023-01-12T09:15:48.252Z,2.30
2023-01-12T09:16:43.301Z,2.40
2023-01-12T09:17:42.238Z,2.10
2023-01-12T09:18:42.249Z,1.70
2023-01-12T09:19:42.211Z,2.20
2023-01-12T09:20:42.192Z,2.00
2023-01-12T09:21:42.176Z,2.30
2023-01-12T09:22:42.277Z,2.00
2023-01-12T09:23:42.179Z,2.00
2023-01-12T09:24:42.163Z,2.30
2023-01-12T09:25:42.127Z,2.20
2023-01-12T09:26:42.128Z,2.40
2023-01-12T09:27:42.096Z,1.90
2023-01-12T09:28:42.108Z,1.90
2023-01-12T09:29:42.113Z,2.00
2023-01-12T09:30:42.068Z,1.20
2023-01-12T09:31:42.136Z,1.70
2023-01-12T09:32:42.035Z,1.70
2023-01-12T09:33:42.054Z,2.00
2023-01-12T09:34:42.017Z,1.60
2023-01-12T09:35:41.992Z,1.80
2023-01-12T09:36:41.987Z,1.50
2023-01-12T09:37:41.962Z,1.50
2023-01-12T09:38:41.956Z,1.50
2023-01-12T09:39:41.956Z,1.70
2023-01-12T09:40:41.928Z,1.60
2023-01-12T09:41:41.918Z,1.90
2023-01-12T09:42:41.907Z,1.40
2023-01-12T09:43:41.888Z,1.50
2023-01-12T09:44:41.901Z,1.80
2023-01-12T09:45:41.948Z,1.40
2023-01-12T09:46:41.867Z,1.70
2023-01-12T09:47:41.839Z,1.30
2023-01-12T09:48:41.828Z,1.70
2023-01-12T09:49:41.823Z,1.80
2023-01-12T09:50:41.803Z,1.70
2023-01-12T09:51:41.780Z,1.50
2023-01-12T09:52:41.781Z,1.80
2023-01-12T09:53:41.757Z,2.10
2023-01-12T09:54:41.761Z,2.30
2023-01-12T09:55:41.749Z,2.00
2023-01-12T09:56:41.722Z,1.50
2023-01-12T09:57:41.703Z,1.90
2023-01-12T09:58:41.696Z,2.30
2023-01-12T09:59:41.691Z,1.60
2023-01-12T10:00:41.670Z,1.70
2023-01-12T10:01:41.839Z,2.30
2023-01-12T10:02:41.842Z,2.50
2023-01-12T10:03:41.739Z,2.00
2023-01-12T10:04:41.634Z,1.90
2023-01-12T10:05:41.612Z,1.60
2023-01-12T10:06:41.594Z,1.60
2023-01-12T10:07:42.273Z,2.00
2023-01-12T10:08:41.586Z,1.70
2023-01-12T10:09:41.564Z,1.70
2023-01-12T10:10:41.541Z,2.30
2023-01-12T10:11:41.536Z,1.90
2023-01-12T10:12:41.527Z,1.50
2023-01-12T10:13:41.512Z,1.60
2023-01-12T10:14:41.521Z,2.20
2023-01-12T10:15:41.494Z,2.30
2023-01-12T10:16:41.546Z,1.70
2023-01-12T10:17:50.833Z,2.00
2023-01-12T10:18:42.445Z,2.10
2023-01-12T10:19:41.480Z,2.20
2023-01-12T10:20:41.447Z,2.00
2023-01-12T10:21:41.401Z,1.90
2023-01-12T10:22:41.401Z,1.80
2023-01-12T10:23:41.381Z,1.90
2023-01-12T10:24:41.391Z,2.10
2023-01-12T10:25:41.361Z,1.90
2023-01-12T10:26:41.340Z,1.90
2023-01-12T10:27:41.349Z,1.90
2023-01-12T10:28:41.305Z,2.40
2023-01-12T10:29:41.299Z,2.10
2023-01-12T10:30:41.317Z,1.80
2023-01-12T10:31:41.371Z,2.20
2023-01-12T10:32:42.333Z,2.10
2023-01-12T10:33:41.269Z,2.10
2023-01-12T10:34:41.235Z,2.10
2023-01-12T10:35:41.231Z,1.90
2023-01-12T10:36:41.198Z,1.80
2023-01-12T10:37:41.185Z,2.10
2023-01-12T10:38:41.177Z,1.80
2023-01-12T10:39:41.179Z,1.60
2023-01-12T10:40:41.179Z,2.00
2023-01-12T10:41:41.135Z,2.10
2023-01-12T10:42:41.132Z,1.60
2023-01-12T10:43:41.120Z,2.60
2023-01-12T10:44:41.122Z,1.90
2023-01-12T10:45:41.120Z,2.30
2023-01-12T10:46:41.131Z,2.30
2023-01-12T10:47:41.071Z,2.00
2023-01-12T10:48:41.067Z,2.00
2023-01-12T10:49:41.108Z,1.90
2023-01-12T10:50:41.044Z,2.10
2023-01-12T10:51:41.008Z,2.00
2023-01-12T10:52:41.020Z,1.40
2023-01-12T10:53:40.980Z,1.40
2023-01-12T10:54:40.965Z,1.80
2023-01-12T10:55:40.970Z,1.60
2023-01-12T10:56:40.948Z,1.70
2023-01-12T10:57:40.927Z,1.50
2023-01-12T10:58:40.920Z,1.50
2023-01-12T10:59:40.900Z,1.30
2023-01-12T11:00:40.905Z,1.50
2023-01-12T11:01:41.047Z,1.30
2023-01-12T11:02:40.902Z,1.20
2023-01-12T11:03:40.858Z,1.40
2023-01-12T11:04:40.837Z,1.30
2023-01-12T11:05:40.907Z,1.50
2023-01-12T11:06:40.814Z,1.00
2023-01-12T11:07:40.797Z,1.30
2023-01-12T11:08:40.787Z,1.30
2023-01-12T11:09:40.815Z,1.10
2023-01-12T11:10:40.786Z,1.10
2023-01-12T11:11:40.748Z,1.10
2023-01-12T11:12:40.727Z,1.30
2023-01-12T11:13:40.720Z,1.20
2023-01-12T11:14:40.718Z,1.10
2023-01-12T11:15:40.715Z,1.20
2023-01-12T11:16:40.753Z,0.80
2023-01-12T11:17:40.692Z,1.00
2023-01-12T11:18:40.660Z,1.10
2023-01-12T11:19:40.642Z,1.00
2023-01-12T11:20:40.650Z,1.20
2023-01-12T11:21:40.651Z,1.00
2023-01-12T11:22:40.604Z,1.20
2023-01-12T11:23:40.599Z,0.70
2023-01-12T11:24:40.587Z,0.90
2023-01-12T11:25:40.605Z,1.00
2023-01-12T11:26:40.556Z,1.00
2023-01-12T11:27:40.561Z,1.40
2023-01-12T11:28:40.535Z,1.00
2023-01-12T11:29:40.516Z,0.80
2023-01-12T11:30:40.597Z,1.10
2023-01-12T11:31:40.495Z,0.80
2023-01-12T11:32:40.499Z,1.20
2023-01-12T11:33:40.471Z,1.10
2023-01-12T11:34:40.454Z,1.00
2023-01-12T11:35:40.468Z,1.30
2023-01-12T11:36:40.432Z,0.90
2023-01-12T11:37:40.444Z,0.90
2023-01-12T11:38:40.403Z,0.90
2023-01-12T11:39:40.397Z,1.10
2023-01-12T11:40:40.399Z,1.30
2023-01-12T11:41:40.368Z,1.00
2023-01-12T11:42:40.353Z,1.00
2023-01-12T11:43:40.348Z,0.90
2023-01-12T11:44:40.324Z,1.00
2023-01-12T11:45:40.313Z,0.90
2023-01-12T11:46:40.318Z,1.00
2023-01-12T11:47:41.917Z,0.90
2023-01-12T11:48:40.275Z,1.00
2023-01-12T11:49:40.260Z,1.00
2023-01-12T11:50:40.247Z,1.20
2023-01-12T11:51:40.255Z,0.90
2023-01-12T11:52:40.224Z,0.90
2023-01-12T11:53:41.554Z,0.60
2023-01-12T11:54:40.265Z,1.10
2023-01-12T11:55:40.193Z,0.90
2023-01-12T11:56:40.194Z,1.00
2023-01-12T11:57:40.166Z,1.10
2023-01-12T11:58:40.162Z,0.80
2023-01-12T11:59:41.636Z,0.90
2023-01-12T12:00:40.135Z,1.00
2023-01-12T12:01:40.128Z,0.90
2023-01-12T12:02:40.150Z,1.10
2023-01-12T12:03:40.202Z,1.00
2023-01-12T12:04:40.073Z,0.80
2023-01-12T12:05:41.394Z,1.00
2023-01-12T12:06:40.100Z,0.60
2023-01-12T12:07:40.032Z,1.20
2023-01-12T12:08:40.037Z,0.80
2023-01-12T12:09:40.058Z,0.70
2023-01-12T12:10:40.004Z,0.50
2023-01-12T12:11:41.868Z,0.80
2023-01-12T12:12:40.045Z,0.60
2023-01-12T12:13:39.960Z,0.80
2023-01-12T12:14:39.952Z,0.60
2023-01-12T12:15:39.983Z,0.90
2023-01-12T12:16:39.944Z,0.70
2023-01-12T12:17:41.784Z,0.80
2023-01-12T12:18:39.897Z,0.90
2023-01-12T12:19:39.893Z,0.70
2023-01-12T12:20:39.872Z,0.60
2023-01-12T12:21:39.872Z,0.50
2023-01-12T12:22:39.835Z,0.70
2023-01-12T12:23:41.473Z,1.00
2023-01-12T12:24:39.819Z,0.50
2023-01-12T12:25:39.818Z,0.50
2023-01-12T12:26:39.811Z,0.40
2023-01-12T12:27:39.771Z,0.60
2023-01-12T12:28:39.764Z,0.60
2023-01-12T12:29:41.147Z,0.70
2023-01-12T12:30:39.782Z,0.40
2023-01-12T12:31:39.741Z,0.70
2023-01-12T12:32:39.727Z,0.60
2023-01-12T12:33:39.694Z,0.50
2023-01-12T12:34:39.680Z,0.70
2023-01-12T12:35:41.339Z,0.40
2023-01-12T12:36:39.670Z,0.60
2023-01-12T12:37:39.640Z,0.40
2023-01-12T12:38:39.622Z,0.50
2023-01-12T12:39:39.610Z,0.40
2023-01-12T12:40:39.599Z,0.50
2023-01-12T12:41:41.400Z,0.50
2023-01-12T12:42:39.578Z,0.30
2023-01-12T12:43:39.563Z,0.50
2023-01-12T12:44:39.547Z,0.60
2023-01-12T12:45:39.538Z,0.50
2023-01-12T12:46:39.544Z,0.60
2023-01-12T12:47:41.906Z,0.20
2023-01-12T12:48:39.493Z,0.40
2023-01-12T12:49:39.483Z,0.40
2023-01-12T12:50:39.463Z,0.40
2023-01-12T12:51:39.464Z,0.30
2023-01-12T12:52:39.435Z,0.50
2023-01-12T12:53:41.705Z,0.50
2023-01-12T12:54:39.410Z,0.30
2023-01-12T12:55:39.400Z,0.50
2023-01-12T12:56:39.395Z,0.50
2023-01-12T12:57:39.392Z,0.40
2023-01-12T12:58:39.363Z,0.20
2023-01-12T12:59:39.344Z,0.30
2023-01-12T13:00:39.351Z,0.40
2023-01-12T13:01:39.538Z,0.20
2023-01-12T13:02:39.394Z,0.30
2023-01-12T13:03:39.294Z,0.30
2023-01-12T13:04:39.284Z,0.40
2023-01-12T13:05:39.263Z,0.40
2023-01-12T13:06:39.271Z,0.40
2023-01-12T13:07:39.239Z,0.40
2023-01-12T13:08:39.234Z,0.30
2023-01-12T13:09:39.224Z,0.30
2023-01-12T13:10:39.195Z,0.40
2023-01-12T13:11:39.221Z,0.40
2023-01-12T13:12:39.189Z,0.30
2023-01-12T13:13:39.192Z,0.40
2023-01-12T13:14:39.149Z,0.50
2023-01-12T13:15:39.226Z,0.40
2023-01-12T13:16:39.116Z,0.40
2023-01-12T13:17:39.124Z,0.50
2023-01-12T13:18:39.092Z,0.50